• Join FlightAware (Why Join?)
  • Login
  • US Flag 
Gobble Gobble! 
11:13AM EST


 

Airport Tracker/Info


-or-


 

Live Flight TrackerFlight Track Log ✈ AMF1326 ✈ 25-Jul-2013 ✈ KCVG - KAVP

Flight Track Log - Related Links

Times and Time Zones

All times are in EDT time to prevent confusion due to time zone crossing. See the AMF1326 flight status page for this flight to view local times or setup timezone preferences in your user account.

Time Position Orientation Groundspeed Altitude Reporting Facility
EDT Latitude Longitude Course Direction KTS MPH feet Rate Location/Type
05:38AM 39.0500 -84.6667 21° North 135 155 1,200  Level Cincinnati TRACON
05:39AM 39.0833 -84.6500 21° North 164 189 2,400 1,560 Climbing Cincinnati TRACON
05:40AM 39.1000 -84.6000 67° East 161 185 4,100 1,500 Climbing Cincinnati TRACON
05:41AM 39.0833 -84.5500 113° Southeast 179 206 5,500 1,380 Climbing Cincinnati TRACON
05:42AM 39.0444 -84.4939 132° Southeast 180 207 7,200 1,260 Climbing Indianapolis Center
05:43AM 39.0136 -84.4397 126° Southeast 185 213 8,400 1,080 Climbing Indianapolis Center
05:44AM 38.9803 -84.3828 127° Southeast 196 226 9,400 1,020 Climbing Indianapolis Center
05:45AM 38.9475 -84.3208 124° Southeast 205 236 10,500 1,020 Climbing Indianapolis Center
05:46AM 38.9308 -84.2486 107° East 210 242 11,500 960 Climbing Indianapolis Center
05:47AM 38.9147 -84.1747 106° East 211 243 12,500 900 Climbing Indianapolis Center
05:48AM 38.8969 -84.1000 107° East 215 247 13,400 900 Climbing Indianapolis Center
05:49AM 38.9117 -84.0256 76° East 211 243 14,400 900 Climbing Indianapolis Center
05:50AM 38.9250 -83.9539 77° East 207 238 15,300 720 Climbing Indianapolis Center
05:51AM 38.9369 -83.8783 78° East 213 245 15,900 660 Climbing Indianapolis Center
05:52AM 38.9464 -83.7994 81° East 220 253 16,700 660 Climbing Indianapolis Center
05:53AM 38.9586 -83.7219 79° East 220 253 17,300 540 Climbing Indianapolis Center
05:54AM 38.9733 -83.6433 76° East 223 257 17,900 540 Climbing Indianapolis Center
05:55AM 38.9886 -83.5653 76° East 223 257 18,500 540 Climbing Indianapolis Center
05:56AM 38.9989 -83.4850 81° East 226 260 19,000 240 Climbing Indianapolis Center
05:57AM 39.0119 -83.4017 79° East 236 272 19,000  Level Indianapolis Center
05:58AM 39.0261 -83.3125 78° East 250 288 19,000  Level Indianapolis Center
05:59AM 39.0439 -83.2236 76° East 255 293 19,000  Level Indianapolis Center
06:00AM 39.0625 -83.1336 75° East 257 296 19,000  Level Indianapolis Center
06:01AM 39.0822 -83.0425 74° East 263 303 19,000  Level Indianapolis Center
06:02AM 39.1003 -82.9528 75° East 259 298 19,000  Level Indianapolis Center
06:03AM 39.1197 -82.8614 75° East 262 302 19,000  Level Indianapolis Center
06:04AM 39.1381 -82.7697 76° East 262 302 19,000  Level Indianapolis Center
06:05AM 39.1575 -82.6783 75° East 264 304 19,000  Level Indianapolis Center
06:06AM 39.1772 -82.5856 75° East 269 310 19,000  Level Indianapolis Center
06:07AM 39.1981 -82.4914 74° East 267 307 19,000  Level Indianapolis Center
06:08AM 39.2158 -82.4017 76° East 265 305 19,000  Level Indianapolis Center
06:09AM 39.2361 -82.3083 74° East 269 310 19,000  Level Indianapolis Center
06:10AM 39.2567 -82.2153 74° East 269 310 19,000  Level Indianapolis Center
06:11AM 39.2756 -82.1239 75° East 265 305 19,000  Level Indianapolis Center
06:12AM 39.2961 -82.0317 74° East 266 306 19,000  Level Indianapolis Center
06:13AM 39.3164 -81.9400 74° East 266 306 19,000  Level Indianapolis Center
06:14AM 39.3378 -81.8469 73° East 269 310 19,000  Level Indianapolis Center
06:15AM 39.3589 -81.7544 74° East 269 310 19,000  Level Indianapolis Center
06:16AM 39.3806 -81.6628 73° East 266 306 19,000  Level Indianapolis Center
06:17AM 39.4022 -81.5694 73° East 269 310 19,000  Level Indianapolis Center
06:18AM 39.4233 -81.4772 73° East 267 307 19,000  Level Indianapolis Center
06:19AM 39.4431 -81.3836 75° East 269 310 19,000  Level Indianapolis Center
06:20AM 39.4786 -81.3000 61° Northeast 268 308 19,000  Level Indianapolis Center
06:21AM 39.5225 -81.2250 53° Northeast 264 304 19,000  Level Indianapolis Center
06:22AM 39.5594 -81.1442 59° Northeast 263 303 19,000  Level Indianapolis Center
06:23AM 39.5994 -81.0636 57° Northeast 262 302 19,000  Level Indianapolis Center
06:24AM 39.6378 -80.9828 58° Northeast 263 303 19,000  Level Indianapolis Center
06:25AM 39.6756 -80.9028 58° Northeast 260 299 19,000  Level Indianapolis Center
06:26AM 39.7139 -80.8206 59° Northeast 265 305 19,000  Level Indianapolis Center
06:27AM 39.7519 -80.7389 59° Northeast 265 305 19,000  Level Indianapolis Center
06:28AM 39.7933 -80.6608 55° Northeast 262 302 19,000  Level Indianapolis Center
06:29AM 39.8317 -80.5800 58° Northeast 262 302 19,000  Level Indianapolis Center
06:30AM 39.8719 -80.5006 57° Northeast 263 303 19,000  Level Indianapolis Center
06:31AM 39.9103 -80.4186 59° Northeast 264 304 19,000  Level Indianapolis Center
06:33AM 39.9772 -80.2958 55° Northeast 257 296 19,000  Level Cleveland Center
06:34AM 40.0122 -80.2092 62° Northeast 257 296 19,000  Level Cleveland Center
06:35AM 40.0433 -80.1247 64° Northeast 257 296 19,000  Level Cleveland Center
06:36AM 40.0783 -80.0378 62° Northeast 252 290 19,000  Level Cleveland Center
06:37AM 40.1114 -79.9506 64° Northeast 258 297 19,000  Level Cleveland Center
06:38AM 40.1442 -79.8661 63° Northeast 263 303 19,000  Level Cleveland Center
06:39AM 40.1769 -79.7789 64° Northeast 263 303 19,000  Level Cleveland Center
06:40AM 40.2097 -79.6942 63° Northeast 263 303 19,000  Level Cleveland Center
06:41AM 40.2444 -79.6067 63° Northeast 263 303 19,000  Level Cleveland Center
06:42AM 40.2769 -79.5217 63° Northeast 263 303 19,000  Level Cleveland Center
06:43AM 40.3094 -79.4314 65° Northeast 263 303 19,000  Level Cleveland Center
06:44AM 40.3439 -79.3464 62° Northeast 263 303 19,000  Level Cleveland Center
06:45AM 40.3742 -79.2614 65° Northeast 263 303 19,000  Level Cleveland Center
06:46AM 40.4108 -79.1761 61° Northeast 263 303 19,000  Level Cleveland Center
06:47AM 40.4431 -79.0908 64° Northeast 263 303 19,000  Level Cleveland Center
06:48AM 40.4775 -79.0053 62° Northeast 263 303 19,000  Level Cleveland Center
06:49AM 40.5117 -78.9200 62° Northeast 263 303 19,000  Level Cleveland Center
06:50AM 40.5458 -78.8344 62° Northeast 258 297 19,000  Level Cleveland Center
06:51AM 40.5781 -78.7597 60° Northeast 258 297 19,000  Level Cleveland Center
06:52AM 40.6119 -78.6739 62° Northeast 263 303 19,000  Level Cleveland Center
06:53AM 40.6481 -78.5881 61° Northeast 263 303 19,000  Level Cleveland Center
06:55AM 40.7261 -78.3956 62° Northeast 268 308 19,000  Level New York Center
06:56AM 40.7483 -78.3131 70° East 268 308 19,000  Level New York Center
06:57AM 40.7686 -78.2219 74° East 263 303 19,000  Level New York Center
06:58AM 40.7911 -78.1283 72° East 263 303 19,000  Level New York Center
06:59AM 40.8133 -78.0375 72° East 258 297 19,000 -300 Level New York Center
07:00AM 40.8339 -77.9383 75° East 263 303 18,400 -600 Descending New York Center
07:01AM 40.8567 -77.8389 73° East 274 315 17,900 -540 Descending New York Center
07:02AM 40.8794 -77.7344 74° East 280 322 17,400 -480 Descending New York Center
07:03AM 40.9042 -77.6353 72° East 280 322 17,000 -240 Descending New York Center
07:04AM 40.9306 -77.5389 70° East 280 322 17,000  Level New York Center
07:05AM 40.9547 -77.4397 72° East 280 322 17,000  Level New York Center
07:06AM 40.9767 -77.3456 73° East 280 322 17,000  Level New York Center
07:07AM 40.9986 -77.2514 73° East 280 322 17,000 -300 Level New York Center
07:08AM 41.0225 -77.1547 72° East 280 322 16,500 -960 Descending New York Center
07:09AM 41.0450 -77.0494 74° East 285 328 15,100 -1,320 Descending New York Center
07:10AM 41.0569 -76.9378 82° East 298 343 14,000 -900 Descending New York Center
07:11AM 41.0708 -76.8344 80° East 298 343 13,300 -1,200 Descending New York Center
07:12AM 41.0822 -76.7281 82° East 291 335 11,700 -1,680 Descending New York Center
07:13AM 41.0967 -76.6081 81° East 297 342 10,000 -1,380 Descending New York Center
07:14AM 41.1114 -76.5183 78° East 285 328 9,000 -540 Descending New York Center
07:15AM 41.1269 -76.4150 79° East 268 308 9,000  Level New York Center
07:16AM 41.1436 -76.3228 76° East 262 302 9,000 4,500 Level New York Center
07:17AM 41.1628 -76.2278 75° East 257 296 18,000 -1,080 Climbing New York Center
07:18AM 41.1811 -76.1467 73° East 257 296 6,900  Descending New York Center
07:19AM 41.1975 -76.0569 76° East 257 296 18,000 -1,500 Climbing New York Center
07:20AM 41.2158 -75.9700 74° East 236 272 4,000 -6,960 Descending New York Center
07:21AM 41.2317 -75.8942 74° East 215 247 3,900 7,020 Descending New York Center
07:22AM 41.2600 -75.8217 63° Northeast 215 247 18,000 -900 Climbing New York Center
07:23AM 41.2869 -75.7714 54° Northeast 193 222 2,200 -8,220 Descending New York Center
07:24AM 41.3108 -75.7481 36° Northeast 162 186 1,400 7,860 Descending New York Center
07:25AM 41.3406 -75.6842 58° Northeast 162 186 18,000 8,340 Climbing New York Center
07:26AM 41.3694 -75.6392 49° Northeast 162 186 18,000  Level New York Center
07:27AM 41.3967 -75.5914 53° Northeast 162 186 18,000  Level New York Center
07:29AM 41.3333 -75.7167 243° Southwest  Level FlightAware Approximate
07:36AM 41.3385 -75.7234 243° Southwest  Level Estimated
07:37AM 41.3333 -75.7167 243° Southwest  Level FlightAware Approximate
07:38AM 41.3385 -75.7234 243° Southwest  Level Estimated
07:39AM 41.3333 -75.7167 243° Southwest  Level FlightAware Approximate
07:40AM 41.3385 -75.7234 243° Southwest  Level Estimated
07:41AM 41.3333 -75.7167 243° Southwest  Level FlightAware Approximate
07:42AM 41.3385 -75.7234 243° Southwest  Level Estimated
07:43AM 41.3333 -75.7167 243° Southwest  Level FlightAware Approximate
07:44AM 41.3385 -75.7234 243° Southwest  Level Estimated
07:45AM 41.3333 -75.7167 243° Southwest  Level FlightAware Approximate